Time;durP1;ratioP1;P1;durP2;ratioP2;P2;SDS_P1;SDS_P2;PMS_P1;PMS_P2;Temp;Humidity;BMP_temperature;BMP_pressure;BME280_temperature;BME280_humidity;BME280_pressure;Samples;Min_cycle;Max_cycle;Signal;HPM_P1;HPM_P2
2023/05/10 00:02:10;;;;;;;4.55;2.90;;;;;;;10.49;nan;-19964.16;4974902;28;20205;-69
2023/05/10 00:04:36;;;;;;;4.38;3.03;;;;;;;10.37;nan;-19642.66;4975299;28;20177;-69
2023/05/10 00:07:01;;;;;;;4.43;2.97;;;;;;;10.34;nan;-21236.38;4977300;28;20292;-69
2023/05/10 00:09:27;;;;;;;4.57;2.85;;;;;;;10.55;nan;-20922.44;4977375;28;20619;-69
2023/05/10 00:11:52;;;;;;;4.00;2.88;;;;;;;10.39;nan;-20918.75;4976986;28;20229;-69
2023/05/10 00:14:18;;;;;;;6.30;3.42;;;;;;;10.32;nan;-21554.53;4974841;28;20281;-72
2023/05/10 00:16:44;;;;;;;6.95;3.10;;;;;;;10.35;nan;-22192.69;4975030;28;20239;-70
2023/05/10 00:19:09;;;;;;;7.45;3.15;;;;;;;10.32;nan;-22510.56;4975376;28;20174;-68
2023/05/10 00:21:34;;;;;;;4.18;3.00;;;;;;;9.98;nan;-22820.56;4973841;28;20209;-69
2023/05/10 00:24:00;;;;;;;4.45;3.00;;;;;;;10.05;nan;-22822.38;4975398;28;20181;-68
2023/05/10 00:26:25;;;;;;;4.63;3.13;;;;;;;10.34;nan;-23148.44;4975242;28;20224;-69
2023/05/10 00:28:51;;;;;;;4.80;2.95;;;;;;;10.36;nan;-23148.84;4973249;28;20639;-69
2023/05/10 00:31:16;;;;;;;6.32;3.75;;;;;;;10.21;nan;-23463.34;4974396;28;20252;-71
2023/05/10 00:33:42;;;;;;;5.20;3.45;;;;;;;10.01;nan;-23776.41;4976670;28;20204;-69
2023/05/10 00:36:08;;;;;;;5.15;3.13;;;;;;;10.21;nan;-23781.81;4974458;28;20205;-69
2023/05/10 00:38:33;;;;;;;5.78;3.50;;;;;;;9.78;nan;-24088.38;4974066;28;20565;-69
2023/05/10 00:40:59;;;;;;;5.40;3.40;;;;;;;10.03;nan;-24095.28;4974190;28;20184;-69
2023/05/10 00:43:24;;;;;;;6.22;3.63;;;;;;;9.91;nan;-24091.91;4974252;28;20255;-69
2023/05/10 00:45:50;;;;;;;5.70;3.75;;;;;;;10.15;nan;-24098.81;4974494;28;20596;-67
2023/05/10 00:48:15;;;;;;;5.32;3.35;;;;;;;10.11;nan;-24099.41;4974194;28;20178;-70
2023/05/10 00:50:41;;;;;;;6.47;3.50;;;;;;;9.84;nan;-24089.94;4974298;28;20217;-69
2023/05/10 00:53:07;;;;;;;5.25;3.72;;;;;;;9.92;nan;-24094.06;4974277;28;20252;-69
2023/05/10 00:55:38;;;;;;;6.60;3.83;;;;;;;9.62;nan;-24085.84;4974565;28;20181;-71
2023/05/10 00:58:04;;;;;;;5.80;3.72;;;;;;;9.57;nan;-24084.44;4974157;28;20162;-69
2023/05/10 01:00:30;;;;;;;4.60;3.33;;;;;;;9.67;nan;-24087.28;4973498;28;20220;-69
2023/05/10 01:02:55;;;;;;;4.47;3.40;;;;;;;9.60;nan;-24085.28;4974218;28;20205;-70
2023/05/10 01:05:21;;;;;;;5.20;3.25;;;;;;;9.51;nan;-24082.75;4974542;28;20173;-68
2023/05/10 01:07:46;;;;;;;6.63;4.05;;;;;;;9.84;nan;-24091.78;4973940;28;20181;-70
2023/05/10 01:10:12;;;;;;;7.75;3.78;;;;;;;9.65;nan;-24086.56;4974242;28;20308;-71
2023/05/10 01:12:40;;;;;;;4.38;3.28;;;;;;;9.80;nan;-24090.66;4974184;28;20173;-69
2023/05/10 01:15:08;;;;;;;6.85;3.70;;;;;;;9.81;nan;-24090.94;4976158;28;20652;-70
2023/05/10 01:17:37;;;;;;;5.25;3.00;;;;;;;9.91;nan;-24093.91;4974758;28;20264;-69
2023/05/10 01:20:03;;;;;;;6.43;4.15;;;;;;;9.81;nan;-24091.09;4973894;28;20174;-69
2023/05/10 01:22:39;;;;;;;8.73;3.83;;;;;;;9.81;nan;-24090.94;4974176;28;20193;-69
2023/05/10 01:25:37;;;;;;;14.03;4.50;;;;;;;9.73;nan;-24088.97;4974386;28;20181;-69
2023/05/10 01:28:36;;;;;;;6.67;4.50;;;;;;;9.70;nan;-24088.13;4974117;28;20546;-70
2023/05/10 01:31:04;;;;;;;5.70;4.53;;;;;;;9.71;nan;-24088.41;4973693;28;20169;-70
2023/05/10 01:33:29;;;;;;;9.53;5.20;;;;;;;9.64;nan;-24086.44;4973642;28;20557;-69
2023/05/10 01:36:13;;;;;;;9.97;5.40;;;;;;;9.66;nan;-24086.84;4973427;28;20177;-68
2023/05/10 01:38:46;;;;;;;11.60;5.80;;;;;;;9.63;nan;-24086.00;4973517;28;20260;-69
2023/05/10 01:41:23;;;;;;;6.93;4.82;;;;;;;9.64;nan;-24086.28;4973650;28;20180;-69
2023/05/10 01:43:57;;;;;;;9.45;5.22;;;;;;;9.71;nan;-24088.41;4973483;28;20262;-69
2023/05/10 01:46:32;;;;;;;11.00;5.63;;;;;;;9.52;nan;-24082.91;4973145;28;20191;-69
2023/05/10 01:49:02;;;;;;;8.82;5.32;;;;;;;9.61;nan;-24085.56;4973139;28;20189;-69
2023/05/10 01:51:36;;;;;;;7.77;5.37;;;;;;;9.37;nan;-24078.78;4978076;28;20716;-70
2023/05/10 01:54:03;;;;;;;7.75;4.97;;;;;;;9.65;nan;-24086.56;4973409;28;20180;-69
2023/05/10 01:56:32;;;;;;;12.40;5.47;;;;;;;9.40;nan;-24079.50;4973245;28;20212;-70
2023/05/10 01:58:59;;;;;;;7.10;4.28;;;;;;;9.31;nan;-24077.25;4972913;28;20181;-69
2023/05/10 02:01:26;;;;;;;5.78;4.10;;;;;;;9.54;nan;-24083.47;4973350;28;20205;-69
2023/05/10 02:03:55;;;;;;;10.18;4.55;;;;;;;9.49;nan;-24082.19;4973126;28;20205;-69
2023/05/10 02:06:23;;;;;;;8.38;4.50;;;;;;;9.30;nan;-24076.81;4972950;28;20174;-68
2023/05/10 02:08:51;;;;;;;9.63;4.70;;;;;;;9.42;nan;-24080.22;4973079;28;20239;-69
2023/05/10 02:11:18;;;;;;;12.13;4.70;;;;;;;9.44;nan;-24080.78;4972561;28;20261;-70
2023/05/10 02:13:47;;;;;;;8.80;3.90;;;;;;;9.50;nan;-24082.31;4973320;28;20597;-70
2023/05/10 02:16:15;;;;;;;8.75;4.82;;;;;;;9.46;nan;-24081.34;4973268;28;20197;-70
2023/05/10 02:18:41;;;;;;;6.80;3.87;;;;;;;9.47;nan;-24081.47;4973075;28;20556;-69
2023/05/10 02:21:08;;;;;;;6.93;4.35;;;;;;;9.46;nan;-24081.34;4972789;28;20185;-69
2023/05/10 02:23:34;;;;;;;5.87;4.00;;;;;;;9.43;nan;-24080.34;4972837;28;20215;-69
2023/05/10 02:26:02;;;;;;;5.20;3.57;;;;;;;9.52;nan;-24083.03;4974499;28;20189;-70
2023/05/10 02:28:29;;;;;;;9.15;4.30;;;;;;;9.38;nan;-24079.06;4972901;28;20209;-68
2023/05/10 02:30:55;;;;;;;7.47;4.30;;;;;;;9.19;nan;-24073.84;4972708;28;20227;-70
2023/05/10 02:33:22;;;;;;;5.23;3.63;;;;;;;9.42;nan;-24080.06;4988042;28;20573;-70
2023/05/10 02:35:48;;;;;;;6.40;4.10;;;;;;;9.41;nan;-24079.78;4972671;28;20185;-70
2023/05/10 02:38:14;;;;;;;6.27;4.03;;;;;;;9.36;nan;-24078.50;4972984;28;20343;-69
2023/05/10 02:40:42;;;;;;;6.80;4.27;;;;;;;9.30;nan;-24076.94;4972471;28;20182;-69
2023/05/10 02:43:11;;;;;;;5.15;3.92;;;;;;;9.32;nan;-24077.53;4972539;28;20235;-69
2023/05/10 02:45:38;;;;;;;4.90;3.90;;;;;;;9.30;nan;-24076.81;4976502;28;20216;-70
2023/05/10 02:48:06;;;;;;;7.47;4.20;;;;;;;9.31;nan;-24077.09;4976599;28;20177;-69
2023/05/10 02:50:32;;;;;;;7.00;3.87;;;;;;;;;;4976640;28;20621;-70
2023/05/10 02:53:08;;;;;;;9.80;4.30;;;;;;;9.10;nan;-24071.31;4976778;28;20725;-69
2023/05/10 02:55:37;;;;;;;6.93;4.30;;;;;;;9.34;nan;-24077.81;4977011;28;20644;-69
2023/05/10 02:58:03;;;;;;;6.47;4.17;;;;;;;9.06;nan;-24070.16;4976603;28;20174;-70
2023/05/10 03:00:29;;;;;;;7.33;4.30;;;;;;;9.22;nan;-24074.69;4976433;28;20244;-69
2023/05/10 03:02:54;;;;;;;6.03;4.33;;;;;;;9.04;nan;-24069.47;4978547;28;20212;-69
2023/05/10 03:05:20;;;;;;;11.03;4.57;;;;;;;9.29;nan;-24076.66;4976703;28;20192;-69
2023/05/10 03:07:46;;;;;;;8.20;4.40;;;;;;;9.04;nan;-24069.47;4976052;28;20185;-69
2023/05/10 03:10:12;;;;;;;6.27;4.00;;;;;;;9.15;nan;-24072.72;4975961;28;20576;-70
2023/05/10 03:12:56;;;;;;;6.80;4.50;;;;;;;9.28;nan;-24076.38;4990991;28;20251;-69
2023/05/10 03:15:55;;;;;;;7.10;4.10;;;;;;;9.30;nan;-24076.81;4976361;28;20169;-68
2023/05/10 03:18:33;;;;;;;6.57;4.23;;;;;;;9.11;nan;-24071.44;4976417;28;20199;-69
2023/05/10 03:21:06;;;;;;;8.87;4.47;;;;;;;9.29;nan;-24076.53;4976565;28;20180;-69
2023/05/10 03:23:43;;;;;;;9.93;4.03;;;;;;;8.89;nan;-24065.34;4978207;28;20232;-70
2023/05/10 03:26:08;;;;;;;7.33;4.13;;;;;;;9.36;nan;-24078.38;4975847;28;20185;-69
2023/05/10 03:28:35;;;;;;;9.43;4.37;;;;;;;9.00;nan;-24068.34;4975635;28;20181;-69
2023/05/10 03:31:02;;;;;;;7.70;4.60;;;;;;;8.75;nan;-24061.41;4976103;28;20204;-69
2023/05/10 03:33:27;;;;;;;7.30;4.80;;;;;;;8.94;nan;-24066.78;4976312;28;20672;-69
2023/05/10 03:35:53;;;;;;;7.10;4.40;;;;;;;9.16;nan;-24073.00;4990822;28;20188;-68
2023/05/10 03:38:18;;;;;;;7.77;4.70;;;;;;;9.16;nan;-24072.84;4975453;28;20231;-69
2023/05/10 03:40:50;;;;;;;6.50;4.37;;;;;;;9.30;nan;-24076.94;4975889;28;20200;-70
2023/05/10 03:43:15;;;;;;;6.13;4.37;;;;;;;9.30;nan;-24076.94;4992670;28;20217;-69
2023/05/10 03:45:40;;;;;;;9.00;4.43;;;;;;;9.28;nan;-24076.25;4975675;28;20185;-68
2023/05/10 03:48:06;;;;;;;6.97;4.83;;;;;;;9.35;nan;-24078.22;4975975;28;20189;-69
2023/05/10 03:50:31;;;;;;;5.67;4.00;;;;;;;9.15;nan;-24072.72;4975780;28;20482;-70
2023/05/10 03:52:57;;;;;;;8.17;4.80;;;;;;;9.41;nan;-24079.91;4975541;28;20178;-71
2023/05/10 03:55:23;;;;;;;7.37;4.70;;;;;;;9.16;nan;-24073.00;4975646;28;20184;-70
2023/05/10 03:57:49;;;;;;;6.80;4.40;;;;;;;9.42;nan;-24080.06;4975430;28;20182;-68
2023/05/10 04:00:15;;;;;;;7.67;4.60;;;;;;;9.46;nan;-24081.19;4974166;28;20189;-69
2023/05/10 04:02:40;;;;;;;6.50;4.20;;;;;;;9.41;nan;-24079.91;4975026;28;20209;-70
2023/05/10 04:05:06;;;;;;;7.37;4.47;;;;;;;9.40;nan;-24077.78;4975199;28;20652;-69
2023/05/10 04:07:31;;;;;;;7.97;4.17;;;;;;;9.58;nan;-24082.88;4974875;28;20183;-69
2023/05/10 04:09:57;;;;;;;6.73;4.10;;;;;;;9.68;nan;-24085.69;4974730;28;21106;-69
2023/05/10 04:12:22;;;;;;;8.23;4.37;;;;;;;9.47;nan;-24079.63;4974628;28;20196;-69
2023/05/10 04:14:47;;;;;;;9.23;4.10;;;;;;;9.59;nan;-24083.16;4973652;28;20177;-70
2023/05/10 04:17:31;;;;;;;9.37;5.17;;;;;;;9.68;nan;-24085.53;4974917;28;20173;-70
2023/05/10 04:19:56;;;;;;;10.43;4.40;;;;;;;9.47;nan;-23761.69;4976922;28;20273;-71
2023/05/10 04:22:21;;;;;;;11.90;4.20;;;;;;;9.51;nan;-24080.88;4974686;28;20284;-70
2023/05/10 04:24:47;;;;;;;8.27;4.77;;;;;;;9.32;nan;-24075.66;4974459;28;20293;-69
2023/05/10 04:27:12;;;;;;;7.80;4.40;;;;;;;9.83;nan;-24089.66;4974645;28;20177;-70
2023/05/10 04:29:38;;;;;;;8.30;4.47;;;;;;;10.13;nan;-22505.81;4974407;28;20189;-68
2023/05/10 04:32:03;;;;;;;8.53;4.73;;;;;;;9.86;nan;-23454.09;4973223;28;20178;-68
2023/05/10 04:34:29;;;;;;;6.55;4.13;;;;;;;10.28;nan;-23465.25;4974771;28;20652;-70
2023/05/10 04:36:54;;;;;;;9.45;4.93;;;;;;;10.31;nan;-23466.06;4989793;28;20177;-69
2023/05/10 04:39:19;;;;;;;12.80;4.63;;;;;;;10.26;nan;-23783.19;4974560;28;20187;-69
2023/05/10 04:41:45;;;;;;;8.55;5.00;;;;;;;10.01;nan;-22184.25;4974907;28;20696;-69
2023/05/10 04:44:10;;;;;;;10.02;4.80;;;;;;;10.28;nan;-21872.38;4974752;28;20173;-68
2023/05/10 04:46:36;;;;;;;8.55;4.35;;;;;;;9.79;nan;-23452.06;4973783;28;20625;-69
2023/05/10 04:49:01;;;;;;;6.70;4.18;;;;;;;9.73;nan;-23450.56;4976956;28;20268;-70
2023/05/10 04:51:26;;;;;;;11.60;4.53;;;;;;;10.00;nan;-23457.75;4981728;28;20514;-69
2023/05/10 04:53:52;;;;;;;6.57;3.45;;;;;;;9.94;nan;-23774.47;4983236;28;20545;-70
2023/05/10 04:56:17;;;;;;;7.03;4.22;;;;;;;9.96;nan;-22819.91;4984110;28;20185;-71
2023/05/10 04:58:43;;;;;;;10.60;4.72;;;;;;;10.06;nan;-23459.53;4990245;28;20185;-70
2023/05/10 05:01:10;;;;;;;7.30;4.25;;;;;;;10.23;nan;-23145.38;4979120;28;20546;-70
2023/05/10 05:03:36;;;;;;;5.15;3.53;;;;;;;10.37;nan;-20918.28;4973981;28;20309;-68
2023/05/10 05:06:02;;;;;;;6.68;4.15;;;;;;;10.59;nan;-19966.41;4974058;28;20268;-72
2023/05/10 05:08:27;;;;;;;5.57;3.55;;;;;;;10.83;nan;-19013.84;4973069;28;20169;-70
2023/05/10 05:10:53;;;;;;;9.10;3.72;;;;;;;10.92;nan;-14222.66;4972473;28;20297;-69
2023/05/10 05:13:18;;;;;;;5.80;3.95;;;;;;;10.60;nan;-16455.38;4973684;28;20169;-69
2023/05/10 05:15:44;;;;;;;5.72;3.88;;;;;;;10.78;nan;-17416.28;4973774;28;20257;-71
2023/05/10 05:18:09;;;;;;;4.72;3.63;;;;;;;10.47;nan;-19006.69;4973703;28;20181;-70
2023/05/10 05:20:35;;;;;;;6.57;3.47;;;;;;;10.85;nan;-20290.91;4973790;28;20185;-70
2023/05/10 05:23:01;;;;;;;10.15;3.88;;;;;;;11.00;nan;-17420.16;4973352;28;20193;-68
2023/05/10 05:25:26;;;;;;;9.82;4.35;;;;;;;10.94;nan;-17738.50;4973817;28;20185;-70
2023/05/10 05:27:52;;;;;;;7.18;4.07;;;;;;;10.91;nan;-19334.59;4973499;28;20166;-69
2023/05/10 05:30:17;;;;;;;8.55;4.20;;;;;;;11.16;nan;-17103.16;4988123;28;20181;-70
2023/05/10 05:32:42;;;;;;;6.63;4.00;;;;;;;11.15;nan;-16463.75;4973584;28;20180;-69
2023/05/10 05:35:08;;;;;;;8.23;4.03;;;;;;;11.01;nan;-18378.69;4971960;28;20272;-68
2023/05/10 05:37:33;;;;;;;8.27;3.70;;;;;;;10.87;nan;-19972.28;4973372;28;20183;-68
2023/05/10 05:40:01;;;;;;;7.57;3.75;;;;;;;10.93;nan;-20611.94;4973388;28;20173;-69
2023/05/10 05:42:26;;;;;;;5.88;3.78;;;;;;;10.98;nan;-19974.66;4973412;28;20189;-68
2023/05/10 05:44:52;;;;;;;7.68;3.95;;;;;;;11.08;nan;-20295.94;4973166;28;20558;-69
2023/05/10 05:47:17;;;;;;;6.80;3.80;;;;;;;11.11;nan;-20935.06;4973347;28;20530;-70
2023/05/10 05:49:45;;;;;;;7.50;3.65;;;;;;;10.91;nan;-20930.47;4971596;28;20185;-68
2023/05/10 05:52:10;;;;;;;6.03;3.80;;;;;;;11.35;nan;-19024.06;4972880;28;20177;-70
2023/05/10 05:54:36;;;;;;;6.05;3.33;;;;;;;11.31;nan;-19981.50;4973150;28;20633;-69
2023/05/10 05:57:01;;;;;;;5.55;3.88;;;;;;;11.07;nan;-19976.59;4972994;28;20752;-68
2023/05/10 05:59:27;;;;;;;4.65;3.38;;;;;;;11.19;nan;-19340.22;4973137;28;20185;-70
2023/05/10 06:01:53;;;;;;;6.68;3.53;;;;;;;11.37;nan;-19663.44;4972589;28;20173;-69
2023/05/10 06:04:19;;;;;;;5.80;3.75;;;;;;;11.63;nan;-18070.31;4973136;28;20228;-68
2023/05/10 06:06:44;;;;;;;5.53;3.35;;;;;;;11.46;nan;-18706.56;4972720;28;20662;-70
2023/05/10 06:09:10;;;;;;;5.50;3.35;;;;;;;11.17;nan;-18381.50;4972818;28;20227;-68
2023/05/10 06:11:36;;;;;;;8.48;3.67;;;;;;;11.12;nan;-19338.78;4971195;28;20323;-71
2023/05/10 06:14:04;;;;;;;7.78;4.10;;;;;;;11.03;nan;-20294.84;4972799;28;20697;-71
2023/05/10 06:16:30;;;;;;;6.97;3.60;;;;;;;11.60;nan;-18389.47;4975248;28;20553;-70
2023/05/10 06:18:55;;;;;;;4.70;3.67;;;;;;;11.87;nan;-17754.81;4981302;28;20671;-69
2023/05/10 06:21:21;;;;;;;6.57;3.25;;;;;;;11.84;nan;-19353.31;4991890;28;20219;-70
2023/05/10 06:23:46;;;;;;;5.57;4.00;;;;;;;11.27;nan;-19341.84;4990861;28;20212;-70
2023/05/10 06:26:12;;;;;;;4.45;3.45;;;;;;;11.26;nan;-17744.16;4992748;28;20243;-68
2023/05/10 06:28:40;;;;;;;8.75;3.80;;;;;;;11.75;nan;-17752.66;4992766;28;20743;-69
2023/05/10 06:31:06;;;;;;;5.90;3.40;;;;;;;11.80;nan;-17753.56;4992763;28;20205;-70
2023/05/10 06:33:32;;;;;;;5.15;3.47;;;;;;;11.85;nan;-17754.44;5007449;28;20509;-70
2023/05/10 06:35:57;;;;;;;7.93;3.75;;;;;;;11.77;nan;-17113.25;4991992;28;20180;-69
2023/05/10 06:38:23;;;;;;;8.10;3.83;;;;;;;11.82;nan;-17753.91;4992523;28;20184;-72
2023/05/10 06:40:48;;;;;;;5.47;3.45;;;;;;;11.52;nan;-18388.16;4992220;28;20715;-69
2023/05/10 06:43:14;;;;;;;5.32;3.50;;;;;;;11.55;nan;-17749.13;4992324;28;20267;-69
2023/05/10 06:45:40;;;;;;;6.45;3.83;;;;;;;11.86;nan;-17114.84;4992480;28;20188;-70
2023/05/10 06:48:06;;;;;;;7.35;4.03;;;;;;;11.59;nan;-15510.81;4992195;28;20176;-69
2023/05/10 06:50:32;;;;;;;6.05;3.20;;;;;;;11.65;nan;-15191.56;4991950;28;20169;-70
2023/05/10 06:52:57;;;;;;;6.10;3.60;;;;;;;11.84;nan;-15514.31;4992483;28;20253;-70
2023/05/10 06:55:23;;;;;;;7.25;3.75;;;;;;;11.66;nan;-16151.69;4992429;28;20176;-70
2023/05/10 06:57:48;;;;;;;4.03;3.03;;;;;;;11.81;nan;-16153.97;4992134;28;20531;-69
2023/05/10 07:00:15;;;;;;;6.60;3.53;;;;;;;11.64;nan;-14231.16;4992084;28;20172;-70
2023/05/10 07:02:40;;;;;;;6.65;3.45;;;;;;;11.80;nan;-14233.13;4992287;28;20633;-69
2023/05/10 07:05:06;;;;;;;5.57;3.80;;;;;;;12.31;nan;-13277.56;4979041;28;20280;-70
2023/05/10 07:07:31;;;;;;;5.80;3.42;;;;;;;12.19;nan;-11352.63;4972726;28;20177;-69
2023/05/10 07:09:57;;;;;;;5.75;3.60;;;;;;;12.45;nan;-9428.88;4974461;28;20192;-68
2023/05/10 07:12:24;;;;;;;5.10;3.33;;;;;;;12.47;nan;-10712.84;4976754;28;20186;-69
2023/05/10 07:14:49;;;;;;;5.05;3.38;;;;;;;;;;4972703;28;20193;-70
2023/05/10 07:17:14;;;;;;;4.97;3.30;;;;;;;12.07;nan;-5575.09;4972598;28;20181;-69
2023/05/10 07:19:40;;;;;;;5.82;3.63;;;;;;;12.59;nan;-5895.41;4972660;28;20573;-69
2023/05/10 07:22:05;;;;;;;4.70;3.10;;;;;;;12.40;nan;-7823.28;4974548;28;20691;-69
2023/05/10 07:24:32;;;;;;;5.35;3.20;;;;;;;12.57;nan;-3644.56;4972281;28;20185;-69
2023/05/10 07:26:58;;;;;;;5.15;3.13;;;;;;;12.49;nan;-3323.41;4974511;28;20205;-70
2023/05/10 07:29:23;;;;;;;7.50;3.10;;;;;;;12.50;nan;-749.03;4972624;28;20221;-70
2023/05/10 07:31:49;;;;;;;4.47;2.90;;;;;;;13.10;nan;-3963.63;4977866;28;20216;-70
2023/05/10 07:34:14;;;;;;;5.45;3.58;;;;;;;13.23;nan;-2674.78;4976006;28;20192;-69
2023/05/10 07:36:39;;;;;;;4.50;3.22;;;;;;;13.09;nan;-4607.41;4975547;28;20185;-69
2023/05/10 07:39:05;;;;;;;4.18;3.20;;;;;;;13.50;nan;4747.00;4978753;28;20665;-71
2023/05/10 07:41:30;;;;;;;5.07;3.40;;;;;;;13.73;nan;5397.69;4980898;28;20200;-70
2023/05/10 07:43:56;;;;;;;7.35;3.70;;;;;;;14.11;nan;16742.47;4975528;28;20606;-69
2023/05/10 07:46:21;;;;;;;6.47;3.58;;;;;;;14.54;nan;26188.47;4977952;28;20208;-70
2023/05/10 07:48:46;;;;;;;4.63;3.67;;;;;;;14.66;nan;31736.25;4977887;28;20177;-69
2023/05/10 07:51:12;;;;;;;4.68;3.22;;;;;;;14.46;nan;28790.00;4975678;28;20271;-70
2023/05/10 07:53:38;;;;;;;5.38;3.55;;;;;;;14.69;nan;24242.78;4975658;28;20177;-70
2023/05/10 07:56:29;;;;;;;4.82;3.20;;;;;;;15.30;nan;48493.84;4976257;28;20205;-70
2023/05/10 07:58:56;;;;;;;4.97;3.13;;;;;;;14.40;nan;46574.50;4977437;28;20201;-69
2023/05/10 08:01:22;;;;;;;5.18;3.17;;;;;;;13.77;nan;40756.94;4975430;28;20177;-69
2023/05/10 08:03:48;;;;;;;5.90;3.33;;;;;;;13.68;nan;22891.97;4975403;28;20256;-71
2023/05/10 08:06:15;;;;;;;4.50;3.10;;;;;;;13.91;nan;26805.19;4975572;28;20206;-70
2023/05/10 08:08:41;;;;;;;5.95;3.08;;;;;;;14.48;nan;32703.28;4975528;28;20189;-69
2023/05/10 08:11:07;;;;;;;4.30;2.90;;;;;;;14.14;nan;42546.28;4976006;28;20225;-70
2023/05/10 08:13:32;;;;;;;4.55;2.67;;;;;;;13.82;nan;41087.97;4975805;28;20265;-71
2023/05/10 08:15:58;;;;;;;4.45;3.00;;;;;;;13.89;nan;31361.59;4975301;28;20228;-70
2023/05/10 08:18:23;;;;;;;4.90;3.17;;;;;;;13.59;nan;38799.78;4975935;28;20260;-70
2023/05/10 08:20:48;;;;;;;4.78;3.00;;;;;;;14.37;nan;45739.94;4975313;28;20578;-70
2023/05/10 08:23:14;;;;;;;4.60;3.00;;;;;;;14.39;nan;48134.38;4975703;28;20196;-71
2023/05/10 08:25:39;;;;;;;5.47;3.13;;;;;;;13.97;nan;47538.91;4975378;28;20173;-70
2023/05/10 08:28:05;;;;;;;5.00;3.00;;;;;;;14.17;nan;46121.88;4975341;28;20176;-68
2023/05/10 08:30:30;;;;;;;3.80;3.03;;;;;;;14.12;nan;47399.41;4975036;28;20181;-72
2023/05/10 08:32:56;;;;;;;5.05;2.72;;;;;;;13.65;nan;49474.44;4975092;28;20604;-69
2023/05/10 08:35:21;;;;;;;6.82;3.13;;;;;;;14.10;nan;39415.13;4974776;28;20612;-70
2023/05/10 08:37:46;;;;;;;3.30;2.45;;;;;;;14.44;nan;46869.34;4974690;28;20256;-69
2023/05/10 08:40:12;;;;;;;5.97;3.10;;;;;;;14.72;nan;50068.13;4975086;28;20265;-69
2023/05/10 08:42:43;;;;;;;4.38;2.97;;;;;;;14.41;nan;53870.50;4974012;28;20190;-69
2023/05/10 08:45:10;;;;;;;6.07;3.00;;;;;;;14.50;nan;53776.97;4974719;28;20224;-70
2023/05/10 08:47:37;;;;;;;5.00;3.05;;;;;;;14.91;nan;48821.94;4974833;28;20189;-68
2023/05/10 08:50:03;;;;;;;5.53;2.65;;;;;;;14.82;nan;54281.34;4974597;28;20177;-70
2023/05/10 08:52:30;;;;;;;3.70;2.75;;;;;;;14.50;nan;51879.59;4974595;28;20372;-69
2023/05/10 08:54:56;;;;;;;3.58;2.67;;;;;;;15.25;nan;52816.69;4974346;28;20256;-70
2023/05/10 08:57:22;;;;;;;4.13;2.83;;;;;;;15.31;nan;55999.94;4974318;28;20281;-70
2023/05/10 08:59:47;;;;;;;4.22;2.75;;;;;;;14.68;nan;56509.91;4974276;28;20711;-69
2023/05/10 09:02:14;;;;;;;5.97;3.20;;;;;;;14.61;nan;53423.28;4976542;28;20232;-69
2023/05/10 09:04:39;;;;;;;6.05;2.70;;;;;;;14.89;nan;53379.91;4974444;28;20611;-69
2023/05/10 09:07:06;;;;;;;3.88;2.80;;;;;;;14.93;nan;54420.84;4974179;28;20645;-70
2023/05/10 09:09:32;;;;;;;5.07;3.17;;;;;;;14.36;nan;55173.44;4974087;28;20252;-69
2023/05/10 09:11:58;;;;;;;4.30;2.95;;;;;;;14.49;nan;56485.31;4974396;28;20236;-70
2023/05/10 09:14:24;;;;;;;4.97;3.35;;;;;;;14.19;nan;54025.72;4974006;28;20569;-68
2023/05/10 09:16:50;;;;;;;6.10;3.33;;;;;;;14.50;nan;53220.97;4974272;28;20174;-69
2023/05/10 09:19:16;;;;;;;4.05;3.10;;;;;;;15.00;nan;54692.38;4974273;28;20566;-70
2023/05/10 09:21:41;;;;;;;6.00;2.72;;;;;;;15.41;nan;57810.50;4971700;28;20193;-68
2023/05/10 09:24:08;;;;;;;4.07;2.88;;;;;;;14.67;nan;56745.59;4973427;28;20213;-69
2023/05/10 09:26:35;;;;;;;7.15;3.35;;;;;;;14.96;nan;56020.50;4973901;28;20162;-69
2023/05/10 09:29:02;;;;;;;5.05;3.30;;;;;;;15.58;nan;57148.69;4973569;28;20629;-69
2023/05/10 09:31:57;;;;;;;4.43;3.15;;;;;;;15.84;nan;56927.25;4973706;28;20228;-69
2023/05/10 09:34:31;;;;;;;3.90;2.72;;;;;;;15.84;nan;57434.09;4980887;28;20190;-70
2023/05/10 09:37:00;;;;;;;4.20;3.25;;;;;;;15.30;nan;57926.72;4973643;28;20671;-69
2023/05/10 09:39:34;;;;;;;4.95;3.05;;;;;;;15.16;nan;57053.22;4973171;28;20224;-69
2023/05/10 09:42:04;;;;;;;5.15;2.90;;;;;;;14.84;nan;57233.56;4973464;28;20166;-70
2023/05/10 09:44:32;;;;;;;5.13;2.90;;;;;;;14.65;nan;56912.44;4973669;28;20264;-68
2023/05/10 09:46:58;;;;;;;4.03;3.03;;;;;;;14.40;nan;55583.44;4973473;28;20253;-69
2023/05/10 09:49:23;;;;;;;5.55;3.17;;;;;;;14.71;nan;54552.44;4973312;28;20709;-69
2023/05/10 09:52:07;;;;;;;3.80;3.17;;;;;;;14.98;nan;56382.69;4973261;28;20256;-70
2023/05/10 09:54:33;;;;;;;4.15;2.97;;;;;;;15.01;nan;58369.56;4973372;28;20235;-69
2023/05/10 09:57:05;;;;;;;5.00;3.22;;;;;;;14.96;nan;57286.91;4974054;28;20185;-71
2023/05/10 09:59:34;;;;;;;4.95;3.20;;;;;;;15.00;nan;57741.38;4988148;28;20176;-70
2023/05/10 10:02:00;;;;;;;4.70;3.33;;;;;;;15.65;nan;58177.34;4973417;28;20199;-69
2023/05/10 10:04:26;;;;;;;4.30;3.20;;;;;;;15.67;nan;58514.56;4973178;28;20268;-69
2023/05/10 10:07:02;;;;;;;4.65;3.05;;;;;;;15.87;nan;58721.56;4975013;28;20185;-67
2023/05/10 10:09:28;;;;;;;4.20;3.00;;;;;;;15.41;nan;57537.38;4984429;28;20180;-69
2023/05/10 10:11:53;;;;;;;4.53;3.00;;;;;;;15.47;nan;58189.34;4973521;28;20236;-69
2023/05/10 10:14:20;;;;;;;4.53;3.08;;;;;;;14.82;nan;59055.16;4973102;28;20521;-69
2023/05/10 10:16:46;;;;;;;5.13;3.20;;;;;;;15.00;nan;58748.34;4972632;28;20203;-69
2023/05/10 10:19:12;;;;;;;4.63;3.00;;;;;;;15.20;nan;58777.84;4973078;28;20181;-70
2023/05/10 10:21:37;;;;;;;5.22;3.20;;;;;;;15.69;nan;58258.84;4973065;28;20177;-70
2023/05/10 10:24:05;;;;;;;5.13;3.17;;;;;;;16.35;nan;58965.91;4972813;28;20216;-70
2023/05/10 10:26:33;;;;;;;5.57;2.92;;;;;;;16.09;nan;59772.00;4972752;28;20220;-70
2023/05/10 10:29:04;;;;;;;7.95;3.13;;;;;;;16.68;nan;60084.75;4972636;28;20177;-70
2023/05/10 10:31:39;;;;;;;4.57;2.78;;;;;;;16.45;nan;60020.56;4972771;28;20177;-70
2023/05/10 10:34:27;;;;;;;3.85;2.75;;;;;;;15.93;nan;60118.00;4973012;28;20663;-70
2023/05/10 10:36:54;;;;;;;5.60;3.10;;;;;;;14.98;nan;58846.97;4972966;28;20257;-69
2023/05/10 10:39:20;;;;;;;4.88;3.20;;;;;;;15.30;nan;59279.44;4972585;28;20259;-70
2023/05/10 10:41:56;;;;;;;8.45;3.67;;;;;;;15.62;nan;58977.44;4972231;28;20173;-68
2023/05/10 10:44:25;;;;;;;6.43;3.72;;;;;;;16.23;nan;59092.44;4972723;28;20177;-65
2023/05/10 10:47:05;;;;;;;4.35;3.05;;;;;;;16.53;nan;59135.00;4972629;28;20542;-64
2023/05/10 10:49:34;;;;;;;5.57;3.95;;;;;;;15.67;nan;59782.81;4987091;28;20501;-62
2023/05/10 10:52:28;;;;;;;4.55;3.38;;;;;;;15.48;nan;59950.22;4972468;28;20228;-64
2023/05/10 10:55:06;;;;;;;4.60;3.33;;;;;;;15.57;nan;59646.22;4972134;28;20641;-63
2023/05/10 10:57:40;;;;;;;5.55;3.67;;;;;;;15.73;nan;59913.56;4972437;28;20162;-64
2023/05/10 11:00:26;;;;;;;5.68;3.60;;;;;;;15.33;nan;60237.19;4972542;28;20243;-60
2023/05/10 11:02:58;;;;;;;5.47;3.50;;;;;;;15.16;nan;59953.91;4972060;28;20714;-63
2023/05/10 11:05:24;;;;;;;5.38;3.90;;;;;;;15.49;nan;60046.53;4973894;28;20249;-64
2023/05/10 11:08:00;;;;;;;4.07;3.35;;;;;;;15.85;nan;60091.09;4976177;28;20565;-62
2023/05/10 11:10:27;;;;;;;4.97;3.33;;;;;;;15.76;nan;60207.84;4975867;28;20657;-63
2023/05/10 11:13:00;;;;;;;4.28;3.28;;;;;;;15.75;nan;60208.72;4975952;28;20181;-63
2023/05/10 11:15:51;;;;;;;4.93;3.67;;;;;;;15.98;nan;60069.47;4976108;28;20220;-67
2023/05/10 11:18:16;;;;;;;5.40;3.40;;;;;;;15.90;nan;60338.75;4976004;28;20252;-62
2023/05/10 11:20:41;;;;;;;6.55;3.88;;;;;;;14.95;nan;59889.47;4976411;28;20253;-68
2023/05/10 11:23:17;;;;;;;6.53;4.00;;;;;;;14.98;nan;60111.38;4975822;28;20224;-63
2023/05/10 11:25:46;;;;;;;4.18;3.38;;;;;;;15.26;nan;60306.59;4975862;28;20175;-61
2023/05/10 11:28:12;;;;;;;5.40;3.72;;;;;;;15.44;nan;59951.47;4976003;28;20173;-63
2023/05/10 11:30:39;;;;;;;7.45;3.80;;;;;;;15.62;nan;60151.09;4990522;28;20268;-60
2023/05/10 11:33:06;;;;;;;5.10;2.95;;;;;;;15.90;nan;60630.34;4990290;28;20601;-62
2023/05/10 11:35:38;;;;;;;4.88;3.60;;;;;;;16.15;nan;60600.50;4975836;28;20197;-66
2023/05/10 11:38:08;;;;;;;5.32;3.65;;;;;;;16.21;nan;60489.25;4975148;28;20173;-63
2023/05/10 11:40:34;;;;;;;6.15;4.15;;;;;;;16.53;nan;60454.81;4975238;28;20173;-66
2023/05/10 11:43:00;;;;;;;6.47;3.10;;;;;;;17.14;nan;60801.09;4975381;28;20252;-63
2023/05/10 11:45:25;;;;;;;4.20;3.25;;;;;;;16.63;nan;60994.09;4975310;28;20549;-62
2023/05/10 11:47:51;;;;;;;5.82;3.65;;;;;;;16.42;nan;60772.50;4975454;28;20169;-65
2023/05/10 11:50:17;;;;;;;5.72;3.65;;;;;;;16.52;nan;60788.88;4975707;28;20648;-64
2023/05/10 11:52:43;;;;;;;4.95;3.10;;;;;;;16.35;nan;60811.63;4975406;28;20181;-62